Time;durP1;ratioP1;P1;durP2;ratioP2;P2;SDS_P1;SDS_P2;PMS_P1;PMS_P2;Temp;Humidity;BMP_temperature;BMP_pressure;BME280_temperature;BME280_humidity;BME280_pressure;Samples;Min_cycle;Max_cycle;Signal;HPM_P1;HPM_P2
2022/10/06 00:03:29;;;;;;;8.30;5.00;;;13.70;35.80;;;;;;4994906;28;20479;-70
2022/10/06 00:06:00;;;;;;;7.80;5.20;;;13.70;35.50;;;;;;5039919;28;20494;-70
2022/10/06 00:08:27;;;;;;;7.20;4.33;;;13.70;35.70;;;;;;5033485;28;20871;-70
2022/10/06 00:10:56;;;;;;;10.70;4.80;;;13.70;35.60;;;;;;5022849;28;20460;-71
2022/10/06 00:13:23;;;;;;;9.43;4.40;;;13.70;35.90;;;;;;5024531;28;20463;-71
2022/10/06 00:15:50;;;;;;;6.90;4.57;;;13.70;36.00;;;;;;5037573;28;20476;-72
2022/10/06 00:18:16;;;;;;;10.13;5.10;;;13.70;36.00;;;;;;5039756;28;20458;-72
2022/10/06 00:20:43;;;;;;;8.50;4.47;;;13.70;35.90;;;;;;5018741;28;20459;-70
2022/10/06 00:23:10;;;;;;;7.60;4.30;;;13.70;35.90;;;;;;5026259;28;20466;-72
2022/10/06 00:25:37;;;;;;;11.80;5.07;;;13.60;35.80;;;;;;5027759;28;20865;-71
2022/10/06 00:28:05;;;;;;;6.93;4.53;;;13.60;35.90;;;;;;5031859;28;20788;-70
2022/10/06 00:30:32;;;;;;;9.80;5.27;;;13.60;36.10;;;;;;5026114;28;20477;-71
2022/10/06 00:33:01;;;;;;;8.10;4.90;;;13.60;36.10;;;;;;5033818;28;20493;-70
2022/10/06 00:35:31;;;;;;;9.23;4.90;;;13.60;36.20;;;;;;5029959;28;20491;-71
2022/10/06 00:37:58;;;;;;;9.07;5.10;;;13.60;36.20;;;;;;5023817;28;20513;-70
2022/10/06 00:40:25;;;;;;;7.63;4.80;;;13.60;36.20;;;;;;5037207;28;20467;-71
2022/10/06 00:42:54;;;;;;;8.67;5.00;;;13.50;36.30;;;;;;5039384;28;20468;-71
2022/10/06 00:45:28;;;;;;;8.73;5.60;;;13.50;36.20;;;;;;5029478;28;20484;-70
2022/10/06 00:47:57;;;;;;;7.83;5.27;;;13.50;36.20;;;;;;5034127;28;20474;-70
2022/10/06 00:50:24;;;;;;;9.20;5.17;;;13.40;36.10;;;;;;5021015;28;20464;-71
2022/10/06 00:52:51;;;;;;;14.57;5.43;;;13.40;36.10;;;;;;5030798;28;20462;-70
2022/10/06 00:55:19;;;;;;;9.47;5.20;;;13.40;36.00;;;;;;5036726;28;20887;-70
2022/10/06 00:57:47;;;;;;;9.00;5.00;;;13.30;36.00;;;;;;5036618;28;20862;-71
2022/10/06 01:00:14;;;;;;;6.83;4.93;;;13.30;36.10;;;;;;5030180;28;20459;-70
2022/10/06 01:02:47;;;;;;;8.63;5.37;;;13.30;36.10;;;;;;5022598;28;20697;-71
2022/10/06 01:05:26;;;;;;;7.63;5.10;;;13.30;36.20;;;;;;5026492;28;20482;-70
2022/10/06 01:07:53;;;;;;;8.60;5.30;;;13.20;36.30;;;;;;5021447;28;20582;-71
2022/10/06 01:10:20;;;;;;;7.80;5.23;;;13.20;36.20;;;;;;5023502;28;20462;-71
2022/10/06 01:12:47;;;;;;;10.17;6.23;;;13.10;36.40;;;;;;5033270;28;20466;-70
2022/10/06 01:15:15;;;;;;;8.90;5.60;;;13.10;36.50;;;;;;5027977;28;20537;-70
2022/10/06 01:17:49;;;;;;;8.73;5.23;;;13.10;36.50;;;;;;5037154;28;20876;-71
2022/10/06 01:20:19;;;;;;;7.30;4.83;;;13.10;36.50;;;;;;5024167;28;20967;-70
2022/10/06 01:22:50;;;;;;;11.00;5.67;;;13.00;36.50;;;;;;5031308;28;20458;-72
2022/10/06 01:25:18;;;;;;;8.97;5.90;;;13.00;36.70;;;;;;5029459;28;20542;-70
2022/10/06 01:27:50;;;;;;;8.37;4.90;;;12.90;36.60;;;;;;5027816;28;20470;-71
2022/10/06 01:30:21;;;;;;;7.60;4.63;;;12.90;36.70;;;;;;5031178;28;20986;-70
2022/10/06 01:32:48;;;;;;;9.53;5.60;;;12.80;36.80;;;;;;5029093;28;20457;-70
2022/10/06 01:35:15;;;;;;;8.47;5.80;;;12.90;36.90;;;;;;5032623;28;20490;-71
2022/10/06 01:37:42;;;;;;;8.93;5.60;;;12.80;36.90;;;;;;5023066;28;20458;-70
2022/10/06 01:40:10;;;;;;;8.93;5.40;;;12.80;37.00;;;;;;5029915;28;20550;-70
2022/10/06 01:42:38;;;;;;;6.73;4.90;;;12.80;37.00;;;;;;5032121;28;20462;-70
2022/10/06 01:45:06;;;;;;;8.53;5.37;;;12.70;37.10;;;;;;5040410;28;21024;-71
2022/10/06 01:47:33;;;;;;;9.60;5.80;;;12.70;37.00;;;;;;5025820;28;20492;-70
2022/10/06 01:50:00;;;;;;;8.70;5.80;;;12.70;37.30;;;;;;5028402;28;20458;-71
2022/10/06 01:52:27;;;;;;;9.47;5.10;;;12.70;37.30;;;;;;5032656;28;21064;-71
2022/10/06 01:54:54;;;;;;;7.53;5.30;;;12.60;37.30;;;;;;5023546;28;20481;-71
2022/10/06 01:57:22;;;;;;;7.10;4.90;;;12.60;37.30;;;;;;5036627;28;20455;-71
2022/10/06 01:59:49;;;;;;;8.83;5.30;;;12.60;37.40;;;;;;5029661;28;20466;-70
2022/10/06 02:02:16;;;;;;;7.10;4.80;;;12.60;37.30;;;;;;5022353;28;20489;-71
2022/10/06 02:04:43;;;;;;;9.00;5.60;;;12.60;37.40;;;;;;5027634;28;20488;-71
2022/10/06 02:07:09;;;;;;;8.40;4.40;;;12.60;37.30;;;;;;5035230;28;20486;-71
2022/10/06 02:09:36;;;;;;;10.70;5.47;;;12.50;37.10;;;;;;5033729;28;20534;-71
2022/10/06 02:12:03;;;;;;;8.10;5.20;;;12.50;37.10;;;;;;5036957;28;20453;-70
2022/10/06 02:14:33;;;;;;;9.30;5.47;;;12.50;37.20;;;;;;5036087;28;20455;-72
2022/10/06 02:17:00;;;;;;;8.57;5.53;;;12.50;37.40;;;;;;5038237;28;20516;-71
2022/10/06 02:19:27;;;;;;;8.80;4.70;;;12.50;37.50;;;;;;5035567;28;20470;-70
2022/10/06 02:21:54;;;;;;;9.07;4.63;;;12.50;37.60;;;;;;5034589;28;20447;-70
2022/10/06 02:24:21;;;;;;;8.03;4.70;;;12.60;37.80;;;;;;5035566;28;20546;-71
2022/10/06 02:26:48;;;;;;;10.73;3.80;;;12.60;38.20;;;;;;5030542;28;20471;-71
2022/10/06 02:29:14;;;;;;;7.90;4.90;;;12.70;38.20;;;;;;5030122;28;20470;-71
2022/10/06 02:31:43;;;;;;;8.23;4.53;;;12.70;38.20;;;;;;5032414;28;20474;-71
2022/10/06 02:34:10;;;;;;;7.27;4.53;;;12.70;38.30;;;;;;5039061;28;20479;-70
2022/10/06 02:36:37;;;;;;;7.30;3.97;;;12.70;38.20;;;;;;5036393;28;20490;-70
2022/10/06 02:39:04;;;;;;;7.77;4.40;;;12.80;38.30;;;;;;5032149;28;20562;-70
2022/10/06 02:41:31;;;;;;;7.20;4.03;;;12.80;38.30;;;;;;5033415;28;20479;-71
2022/10/06 02:43:58;;;;;;;8.80;4.50;;;12.70;38.20;;;;;;5029217;28;20550;-71
2022/10/06 02:46:25;;;;;;;9.23;4.60;;;12.80;38.10;;;;;;5023014;28;20479;-71
2022/10/06 02:48:54;;;;;;;9.33;4.77;;;12.80;37.90;;;;;;5032873;28;20458;-70
2022/10/06 02:51:21;;;;;;;10.03;4.97;;;12.80;37.90;;;;;;5038079;28;20466;-70
2022/10/06 02:53:49;;;;;;;9.33;5.30;;;12.90;38.00;;;;;;5045800;28;20463;-71
2022/10/06 02:56:18;;;;;;;7.60;4.90;;;12.90;38.00;;;;;;5040816;28;20478;-70
2022/10/06 02:58:46;;;;;;;9.90;4.70;;;13.00;38.10;;;;;;5019611;28;20540;-70
2022/10/06 03:01:15;;;;;;;11.70;5.13;;;13.00;38.10;;;;;;5025080;28;20489;-71
2022/10/06 03:03:42;;;;;;;8.33;5.20;;;13.00;37.90;;;;;;5032579;28;20466;-71
2022/10/06 03:06:21;;;;;;;7.67;4.67;;;13.00;37.80;;;;;;5025049;28;20490;-71
2022/10/06 03:08:48;;;;;;;10.13;5.50;;;13.00;37.80;;;;;;5035516;28;20497;-71
2022/10/06 03:11:15;;;;;;;8.60;4.83;;;13.00;37.60;;;;;;5035463;28;20493;-70
2022/10/06 03:13:42;;;;;;;7.50;5.70;;;13.10;37.80;;;;;;5041015;28;20454;-70
2022/10/06 03:16:15;;;;;;;7.60;4.80;;;13.10;37.60;;;;;;5029965;28;20483;-70
2022/10/06 03:18:43;;;;;;;8.27;5.20;;;13.10;37.80;;;;;;5030135;28;20458;-71
2022/10/06 03:21:12;;;;;;;9.93;4.90;;;13.10;37.70;;;;;;5033975;28;20462;-71
2022/10/06 03:23:39;;;;;;;9.80;5.07;;;13.10;37.70;;;;;;5039873;28;20985;-71
2022/10/06 03:26:06;;;;;;;8.53;5.67;;;13.10;37.60;;;;;;5036485;28;20978;-72
2022/10/06 03:28:33;;;;;;;10.43;5.27;;;13.10;37.70;;;;;;5030801;28;20471;-70
2022/10/06 03:31:02;;;;;;;8.93;5.90;;;13.10;37.80;;;;;;5019748;28;20562;-69
2022/10/06 03:33:30;;;;;;;8.77;5.43;;;13.10;37.80;;;;;;5026428;28;20493;-70
2022/10/06 03:36:00;;;;;;;8.93;5.07;;;13.10;37.80;;;;;;5023346;28;21100;-70
2022/10/06 03:38:30;;;;;;;8.40;5.10;;;13.10;37.70;;;;;;5023523;28;21045;-70
2022/10/06 03:41:05;;;;;;;8.83;5.47;;;13.20;37.70;;;;;;5024396;28;20513;-70
2022/10/06 03:43:32;;;;;;;10.50;5.10;;;13.20;37.60;;;;;;5012632;28;20811;-71
2022/10/06 03:46:00;;;;;;;8.40;4.63;;;13.20;37.40;;;;;;5017931;28;20501;-70
2022/10/06 03:48:28;;;;;;;7.47;4.73;;;13.20;37.30;;;;;;5018255;28;20480;-70
2022/10/06 03:50:55;;;;;;;10.67;5.17;;;13.10;37.20;;;;;;5023289;28;20467;-68
2022/10/06 03:53:24;;;;;;;9.33;5.27;;;13.10;37.30;;;;;;5021047;28;20465;-70
2022/10/06 03:55:59;;;;;;;9.43;4.90;;;13.10;37.20;;;;;;5023091;28;20975;-71
2022/10/06 03:58:26;;;;;;;7.70;4.80;;;13.10;37.30;;;;;;5028288;28;20455;-71
2022/10/06 04:00:59;;;;;;;8.00;5.30;;;13.10;37.20;;;;;;5023763;28;20464;-70
2022/10/06 04:03:25;;;;;;;7.23;4.83;;;13.10;37.30;;;;;;5024299;28;20469;-71
2022/10/06 04:05:53;;;;;;;6.87;4.53;;;13.10;37.30;;;;;;5020249;28;20483;-71
2022/10/06 04:08:20;;;;;;;8.60;5.40;;;13.10;37.40;;;;;;5013962;28;20479;-72
2022/10/06 04:10:47;;;;;;;7.33;4.10;;;13.10;37.40;;;;;;5019543;28;20455;-71
2022/10/06 04:13:17;;;;;;;7.40;5.00;;;13.10;37.50;;;;;;5026471;28;20463;-72
2022/10/06 04:15:44;;;;;;;6.83;4.10;;;13.10;37.50;;;;;;5034370;28;20474;-74
2022/10/06 04:18:11;;;;;;;9.23;5.20;;;13.20;37.50;;;;;;5022394;28;20462;-73
2022/10/06 04:20:38;;;;;;;8.17;5.83;;;13.10;37.30;;;;;;5030746;28;20463;-73
2022/10/06 04:23:06;;;;;;;10.90;4.87;;;13.10;37.20;;;;;;5039381;28;20456;-73
2022/10/06 04:25:33;;;;;;;8.50;5.20;;;13.00;37.70;;;;;;5041548;28;20476;-73
2022/10/06 04:27:59;;;;;;;7.50;4.80;;;13.10;37.30;;;;;;5023452;28;20819;-73
2022/10/06 04:30:28;;;;;;;8.17;5.20;;;13.00;37.70;;;;;;5035842;28;20463;-73
2022/10/06 04:32:54;;;;;;;10.10;4.90;;;13.10;37.30;;;;;;5037540;28;20515;-74
2022/10/06 04:35:22;;;;;;;10.23;4.93;;;13.00;37.20;;;;;;5033241;28;20529;-73
2022/10/06 04:37:48;;;;;;;9.70;4.60;;;13.00;37.10;;;;;;5033607;28;20554;-74
2022/10/06 04:40:15;;;;;;;7.07;4.77;;;13.00;37.20;;;;;;5021961;28;20451;-73
2022/10/06 04:42:44;;;;;;;8.30;5.50;;;12.90;37.20;;;;;;5021387;28;20491;-73
2022/10/06 04:45:11;;;;;;;7.47;5.20;;;12.90;37.20;;;;;;5028062;28;21026;-73
2022/10/06 04:47:39;;;;;;;7.90;5.20;;;12.90;37.30;;;;;;5026993;28;20495;-72
2022/10/06 04:50:06;;;;;;;9.10;5.37;;;12.90;37.40;;;;;;5036218;28;20462;-73
2022/10/06 04:52:33;;;;;;;9.97;5.67;;;12.90;37.50;;;;;;5038508;28;20979;-73
2022/10/06 04:55:00;;;;;;;8.63;5.90;;;12.80;37.40;;;;;;5021668;28;20483;-72
2022/10/06 04:57:27;;;;;;;7.80;5.57;;;12.80;37.50;;;;;;5040797;28;20458;-72
2022/10/06 05:02:40;;;;;;;9.70;5.10;;;12.80;38.40;;;;;;5031930;28;20594;-72
2022/10/06 05:05:07;;;;;;;8.00;5.37;;;12.80;38.50;;;;;;5034784;28;20475;-73
2022/10/06 05:07:34;;;;;;;8.57;4.80;;;12.90;39.10;;;;;;5043495;28;20474;-73
2022/10/06 05:10:01;;;;;;;9.60;5.23;;;12.90;39.30;;;;;;5026765;28;20463;-73
2022/10/06 05:12:29;;;;;;;9.27;5.03;;;13.00;39.30;;;;;;5030958;28;20929;-73
2022/10/06 05:14:55;;;;;;;13.37;5.40;;;13.00;39.20;;;;;;5037961;28;20565;-72
2022/10/06 05:17:22;;;;;;;8.63;5.37;;;13.00;39.50;;;;;;5033277;28;20485;-74
2022/10/06 05:19:50;;;;;;;7.73;4.73;;;13.00;39.30;;;;;;5047215;28;20496;-73
2022/10/06 05:22:17;;;;;;;7.90;4.60;;;13.10;39.30;;;;;;5035175;28;20447;-75
2022/10/06 05:24:44;;;;;;;8.70;4.87;;;13.10;39.10;;;;;;5032128;28;20473;-73
2022/10/06 05:27:10;;;;;;;14.13;5.27;;;13.10;39.00;;;;;;5033980;28;20457;-73
2022/10/06 05:29:38;;;;;;;8.17;5.03;;;13.10;38.70;;;;;;5031873;28;20466;-73
2022/10/06 05:32:04;;;;;;;8.17;5.10;;;13.20;38.50;;;;;;5039219;28;20973;-73
2022/10/06 05:34:31;;;;;;;9.80;5.10;;;13.20;38.50;;;;;;5025780;28;20462;-73
2022/10/06 05:36:59;;;;;;;8.60;4.57;;;13.20;38.40;;;;;;5035846;28;20468;-73
2022/10/06 05:39:26;;;;;;;8.30;4.97;;;13.20;38.30;;;;;;5031149;28;20459;-72
2022/10/06 05:41:53;;;;;;;8.47;4.73;;;13.20;38.30;;;;;;5039284;28;20458;-73
2022/10/06 05:44:19;;;;;;;6.33;4.27;;;13.30;38.30;;;;;;5030915;28;20670;-73
2022/10/06 05:46:46;;;;;;;10.13;6.07;;;13.40;38.40;;;;;;5025136;28;20455;-73
2022/10/06 05:49:13;;;;;;;9.00;4.63;;;13.40;38.20;;;;;;5023120;28;20484;-74
2022/10/06 05:51:40;;;;;;;6.87;4.77;;;13.50;38.30;;;;;;5035831;28;20458;-72
2022/10/06 05:54:08;;;;;;;9.40;4.90;;;13.60;38.00;;;;;;5026241;28;20466;-73
2022/10/06 05:56:36;;;;;;;6.87;4.70;;;13.70;38.00;;;;;;5036387;28;20481;-72
2022/10/06 05:59:04;;;;;;;8.70;4.07;;;13.80;37.90;;;;;;5037272;28;20451;-73
2022/10/06 06:01:33;;;;;;;7.77;4.60;;;14.00;37.40;;;;;;5029844;28;20473;-72
2022/10/06 06:04:02;;;;;;;8.03;4.53;;;14.20;37.10;;;;;;5026853;28;20551;-73
2022/10/06 06:06:30;;;;;;;8.10;4.97;;;14.60;36.30;;;;;;5031594;28;20488;-73
2022/10/06 06:08:59;;;;;;;6.23;3.80;;;14.90;35.60;;;;;;5022638;28;20545;-73
2022/10/06 06:11:30;;;;;;;6.40;4.00;;;15.30;34.70;;;;;;5044559;28;21037;-73
2022/10/06 06:13:57;;;;;;;7.63;4.67;;;15.60;33.20;;;;;;5039102;28;21108;-73
2022/10/06 06:16:24;;;;;;;7.70;4.37;;;15.90;31.80;;;;;;5039946;28;20857;-73
2022/10/06 06:18:51;;;;;;;6.27;4.27;;;16.00;31.00;;;;;;5026283;28;20456;-73
2022/10/06 06:21:18;;;;;;;10.50;3.67;;;15.90;30.90;;;;;;5022169;28;20456;-73
2022/10/06 06:23:46;;;;;;;7.47;4.47;;;15.80;30.90;;;;;;5032238;28;20822;-73
2022/10/06 06:26:16;;;;;;;7.00;4.77;;;15.80;31.10;;;;;;5030630;28;20496;-73
2022/10/06 06:28:45;;;;;;;7.50;4.73;;;15.80;31.10;;;;;;5032038;28;20476;-74
2022/10/06 06:31:13;;;;;;;7.77;4.17;;;15.80;31.00;;;;;;5027667;28;20466;-74
2022/10/06 06:33:41;;;;;;;6.43;3.83;;;16.00;30.90;;;;;;5037235;28;20483;-73
2022/10/06 06:36:16;;;;;;;9.03;4.37;;;16.10;30.80;;;;;;5030470;28;20482;-73
2022/10/06 06:38:43;;;;;;;7.57;4.80;;;16.30;30.60;;;;;;5036890;28;20450;-72
2022/10/06 06:41:14;;;;;;;6.77;4.00;;;16.60;30.20;;;;;;5030814;28;20489;-74
2022/10/06 06:43:42;;;;;;;7.50;3.90;;;16.80;29.70;;;;;;5029915;28;20462;-72
2022/10/06 06:46:13;;;;;;;7.37;4.37;;;17.00;28.70;;;;;;5022361;28;20529;-73
2022/10/06 06:48:40;;;;;;;7.00;4.00;;;17.20;28.20;;;;;;5036344;28;20485;-73
2022/10/06 06:51:10;;;;;;;8.37;4.30;;;17.30;28.00;;;;;;5025578;28;20464;-74
2022/10/06 06:53:37;;;;;;;8.93;4.60;;;17.30;27.60;;;;;;5042523;28;20804;-73
2022/10/06 06:56:04;;;;;;;8.53;4.60;;;17.30;27.30;;;;;;5033678;28;20477;-73
2022/10/06 06:58:31;;;;;;;10.03;5.27;;;17.20;27.30;;;;;;5034450;28;20459;-72
2022/10/06 07:01:05;;;;;;;9.90;4.63;;;17.20;27.40;;;;;;5029506;28;20481;-72
2022/10/06 07:03:34;;;;;;;9.00;4.80;;;17.20;27.40;;;;;;5038030;28;20597;-73
2022/10/06 07:06:08;;;;;;;7.30;4.83;;;17.30;27.30;;;;;;5035574;28;20487;-73
2022/10/06 07:08:36;;;;;;;8.70;5.27;;;17.30;27.40;;;;;;5037496;28;20565;-74
2022/10/06 07:11:12;;;;;;;9.07;5.07;;;17.30;27.40;;;;;;5027844;28;20986;-73
2022/10/06 07:13:39;;;;;;;8.10;4.80;;;17.40;27.50;;;;;;5041811;28;20465;-72
2022/10/06 07:27:06;;;;;;;8.57;5.27;;;22.80;16.70;;;;;;5039380;28;20458;-74
2022/10/06 07:29:33;;;;;;;7.77;4.80;;;24.10;13.40;;;;;;5030438;28;20477;-74
2022/10/06 07:32:00;;;;;;;6.63;4.27;;;25.30;11.30;;;;;;5036787;28;20471;-74
2022/10/06 07:34:29;;;;;;;6.80;4.47;;;26.40;8.90;;;;;;5036908;28;20473;-74
2022/10/06 07:36:56;;;;;;;9.73;4.60;;;27.40;6.80;;;;;;5030667;28;20459;-73
2022/10/06 07:39:23;;;;;;;10.73;4.80;;;28.30;5.50;;;;;;5038732;28;20491;-76
2022/10/06 07:41:50;;;;;;;6.27;4.00;;;29.20;3.90;;;;;;5038598;28;20459;-74
2022/10/06 07:44:16;;;;;;;8.43;4.67;;;30.10;2.20;;;;;;5031681;28;20465;-75
2022/10/06 07:46:43;;;;;;;6.57;4.10;;;30.90;1.00;;;;;;5029519;28;20478;-74
2022/10/06 07:49:10;;;;;;;9.37;4.93;;;31.50;1.00;;;;;;5040099;28;20539;-74
2022/10/06 07:51:38;;;;;;;7.33;4.50;;;32.20;1.00;;;;;;5030010;28;20455;-73
2022/10/06 07:54:07;;;;;;;8.30;4.00;;;32.80;1.00;;;;;;5039095;28;20464;-73
2022/10/06 07:56:33;;;;;;;6.20;4.30;;;33.40;1.00;;;;;;5037264;28;20967;-75
2022/10/06 07:59:00;;;;;;;8.13;4.10;;;34.00;1.00;;;;;;5033301;28;20465;-74
2022/10/06 08:01:28;;;;;;;7.33;3.70;;;34.60;1.00;;;;;;5028313;28;20475;-74
2022/10/06 08:03:55;;;;;;;12.37;5.10;;;35.10;1.00;;;;;;5037997;28;20462;-74
2022/10/06 08:06:23;;;;;;;7.60;4.03;;;35.50;1.00;;;;;;5032296;28;20483;-73
2022/10/06 08:08:52;;;;;;;6.73;4.30;;;35.90;1.00;;;;;;5031894;28;20482;-74
2022/10/06 08:11:19;;;;;;;9.20;4.60;;;36.40;1.00;;;;;;5029630;28;20451;-74
2022/10/06 08:13:47;;;;;;;7.37;3.57;;;36.90;1.00;;;;;;5033147;28;20531;-73
2022/10/06 08:16:16;;;;;;;5.70;3.80;;;37.30;1.00;;;;;;5028421;28;20479;-74
2022/10/06 08:18:48;;;;;;;6.07;3.53;;;37.60;1.00;;;;;;5042127;28;21104;-73
2022/10/06 08:21:17;;;;;;;8.53;4.27;;;38.10;1.00;;;;;;5030625;28;20455;-73
2022/10/06 08:23:45;;;;;;;6.43;3.47;;;38.40;1.00;;;;;;5035292;28;20456;-74
2022/10/06 08:26:15;;;;;;;6.60;3.43;;;38.30;1.00;;;;;;5033841;28;20481;-73
2022/10/06 08:28:44;;;;;;;7.50;4.73;;;38.30;1.00;;;;;;5031793;28;20931;-72
2022/10/06 08:31:11;;;;;;;7.80;3.63;;;38.70;1.00;;;;;;5027849;28;20481;-73
2022/10/06 08:33:38;;;;;;;6.83;3.50;;;39.10;1.00;;;;;;5028690;28;20467;-73
2022/10/06 08:36:08;;;;;;;7.10;3.40;;;39.20;1.00;;;;;;5027324;28;20486;-74
2022/10/06 08:38:36;;;;;;;7.60;4.10;;;39.30;1.00;;;;;;5031844;28;20458;-74
2022/10/06 08:41:03;;;;;;;5.90;3.77;;;39.80;1.00;;;;;;5033585;28;20459;-73
2022/10/06 08:43:34;;;;;;;6.90;3.70;;;40.10;1.00;;;;;;5029530;28;20481;-74
2022/10/06 08:46:03;;;;;;;6.03;3.63;;;40.50;1.00;;;;;;5034696;28;20482;-74
2022/10/06 08:48:37;;;;;;;6.50;4.00;;;40.20;1.00;;;;;;5020401;28;20466;-72
2022/10/06 08:51:18;;;;;;;5.70;3.40;;;39.40;1.00;;;;;;5027531;28;20459;-73
2022/10/06 08:53:54;;;;;;;6.80;3.70;;;38.90;1.00;;;;;;5027493;28;20516;-73
2022/10/06 08:56:25;;;;;;;6.00;3.80;;;38.70;1.00;;;;;;5040085;28;21249;-73
2022/10/06 08:58:56;;;;;;;6.80;4.10;;;37.30;1.00;;;;;;5032527;28;20485;-73
2022/10/06 09:01:25;;;;;;;6.53;3.80;;;35.90;1.00;;;;;;5036735;28;20823;-73
2022/10/06 09:03:54;;;;;;;7.97;4.10;;;35.20;1.00;;;;;;5040080;28;20977;-73
2022/10/06 09:06:40;;;;;;;11.93;3.93;;;34.90;1.00;;;;;;5035605;28;20482;-74
2022/10/06 09:09:18;;;;;;;6.77;3.53;;;36.00;1.00;;;;;;5030462;28;20833;-72
2022/10/06 09:12:01;;;;;;;8.13;3.90;;;36.90;1.00;;;;;;5034204;28;20450;-74
2022/10/06 09:14:36;;;;;;;6.97;3.37;;;36.70;1.00;;;;;;5023919;28;20489;-73
2022/10/06 09:17:09;;;;;;;7.13;3.43;;;35.70;1.00;;;;;;5026560;28;20526;-73
2022/10/06 09:19:42;;;;;;;10.60;3.40;;;35.50;1.00;;;;;;5035921;28;20462;-74
2022/10/06 09:22:17;;;;;;;10.23;3.80;;;34.80;1.00;;;;;;5031208;28;20469;-73
2022/10/06 09:24:48;;;;;;;9.10;3.60;;;33.90;1.00;;;;;;5033067;28;20474;-74
2022/10/06 09:27:19;;;;;;;6.50;3.30;;;33.00;1.00;;;;;;5035613;28;20545;-74
2022/10/06 09:29:48;;;;;;;7.73;3.23;;;32.90;1.00;;;;;;5031310;28;20501;-73
2022/10/06 09:32:15;;;;;;;5.20;3.43;;;34.60;1.00;;;;;;5029612;28;20999;-73
2022/10/06 09:34:46;;;;;;;6.10;3.40;;;36.50;1.00;;;;;;5037873;28;20886;-73
2022/10/06 09:37:14;;;;;;;5.00;2.70;;;38.20;1.00;;;;;;5030884;28;20469;-74
2022/10/06 09:39:43;;;;;;;5.33;2.87;;;39.40;1.00;;;;;;5032520;28;20968;-74
2022/10/06 09:42:15;;;;;;;6.70;2.90;;;40.30;1.00;;;;;;5037836;28;20606;-74
2022/10/06 09:44:56;;;;;;;6.37;2.77;;;40.70;1.00;;;;;;5030584;28;20921;-72
2022/10/06 09:47:33;;;;;;;4.47;2.50;;;41.30;1.00;;;;;;5032289;28;20464;-74
2022/10/06 09:50:13;;;;;;;5.07;2.63;;;41.80;1.00;;;;;;5022522;28;20478;-73
2022/10/06 09:52:41;;;;;;;6.30;2.23;;;42.20;1.00;;;;;;5032722;28;20469;-72
2022/10/06 09:55:12;;;;;;;5.87;2.57;;;42.20;1.00;;;;;;5036247;28;21013;-73
2022/10/06 09:57:46;;;;;;;6.63;2.73;;;40.60;1.00;;;;;;5039167;28;20466;-74
2022/10/06 10:00:28;;;;;;;7.03;3.47;;;38.70;1.00;;;;;;5033262;28;20509;-73
2022/10/06 10:02:59;;;;;;;6.33;3.63;;;36.90;1.00;;;;;;5031029;28;20471;-75
2022/10/06 10:05:29;;;;;;;6.00;3.10;;;35.60;1.00;;;;;;5031965;28;20486;-74
2022/10/06 10:08:08;;;;;;;9.70;3.83;;;34.60;1.00;;;;;;5030532;28;21016;-74
2022/10/06 10:10:36;;;;;;;8.67;3.90;;;33.90;1.00;;;;;;5030354;28;20998;-73
2022/10/06 10:13:16;;;;;;;5.73;3.63;;;33.10;1.00;;;;;;5038705;28;20523;-72
2022/10/06 10:15:53;;;;;;;7.57;4.03;;;32.30;1.00;;;;;;5033441;28;20481;-73
2022/10/06 10:18:25;;;;;;;11.87;4.27;;;31.20;1.00;;;;;;5035579;28;20450;-74
2022/10/06 10:20:56;;;;;;;8.40;4.30;;;30.50;1.00;;;;;;5041553;28;20508;-73
2022/10/06 10:23:25;;;;;;;8.00;4.40;;;30.00;1.30;;;;;;5023175;28;20512;-73
2022/10/06 10:26:13;;;;;;;6.40;4.20;;;29.80;2.00;;;;;;5031996;28;20939;-73
2022/10/06 10:29:04;;;;;;;8.70;3.83;;;29.80;2.00;;;;;;5031313;28;20519;-73
2022/10/06 10:31:42;;;;;;;12.17;4.87;;;29.70;2.20;;;;;;5027552;28;20454;-74
2022/10/06 10:34:17;;;;;;;9.30;4.97;;;29.40;2.30;;;;;;5039849;28;20453;-74
2022/10/06 10:36:51;;;;;;;10.30;5.13;;;29.00;2.50;;;;;;5041410;28;20965;-73
2022/10/06 10:39:27;;;;;;;9.70;4.63;;;28.50;3.40;;;;;;5032032;28;20450;-72
2022/10/06 10:41:56;;;;;;;10.77;5.10;;;28.10;4.00;;;;;;5042116;28;20871;-72
2022/10/06 10:44:29;;;;;;;8.20;4.30;;;27.70;4.90;;;;;;5048034;28;20477;-71
2022/10/06 10:47:07;;;;;;;7.80;3.73;;;27.40;5.30;;;;;;5041825;28;20515;-73
2022/10/06 10:49:35;;;;;;;7.87;3.50;;;27.10;5.80;;;;;;5041733;28;20489;-74
2022/10/06 10:52:07;;;;;;;11.30;3.37;;;26.90;5.90;;;;;;5037191;28;20510;-72
2022/10/06 10:54:39;;;;;;;8.47;4.10;;;26.70;6.50;;;;;;5037349;28;20482;-72
2022/10/06 10:57:12;;;;;;;6.33;3.27;;;26.40;7.20;;;;;;5027022;28;20542;-72
2022/10/06 10:59:50;;;;;;;7.73;2.80;;;26.20;7.50;;;;;;5033850;28;20664;-73
2022/10/06 11:02:20;;;;;;;9.97;3.50;;;26.10;7.80;;;;;;5037740;28;20899;-72
2022/10/06 11:04:51;;;;;;;7.33;3.40;;;25.90;8.00;;;;;;5036106;28;20481;-72
2022/10/06 11:07:23;;;;;;;7.17;4.60;;;25.70;8.40;;;;;;5042454;28;20481;-72
2022/10/06 11:09:58;;;;;;;9.10;3.80;;;25.60;9.00;;;;;;5033979;28;21001;-72
2022/10/06 11:12:37;;;;;;;7.57;3.20;;;25.50;9.00;;;;;;5042763;28;20519;-71
2022/10/06 11:15:12;;;;;;;9.47;2.70;;;25.50;8.80;;;;;;5029369;28;20581;-73
2022/10/06 11:17:48;;;;;;;10.73;4.97;;;25.40;8.90;;;;;;5042357;28;20465;-72
2022/10/06 11:20:37;;;;;;;6.90;3.03;;;25.40;9.00;;;;;;5025785;28;20458;-72
2022/10/06 11:23:41;;;;;;;6.00;2.60;;;25.40;8.60;;;;;;5035472;28;20455;-73
2022/10/06 11:26:23;;;;;;;6.00;2.30;;;25.40;8.60;;;;;;5029410;28;20848;-73
2022/10/06 11:28:57;;;;;;;8.30;2.83;;;25.50;8.60;;;;;;5031846;28;20458;-73
2022/10/06 11:31:33;;;;;;;5.80;2.47;;;25.70;8.60;;;;;;5017526;28;20479;-73
2022/10/06 11:34:03;;;;;;;6.77;2.30;;;26.60;7.90;;;;;;5028299;28;20951;-73
2022/10/06 11:36:39;;;;;;;8.83;2.27;;;27.00;5.60;;;;;;5038897;28;20494;-73
2022/10/06 11:39:16;;;;;;;5.67;2.53;;;26.70;5.50;;;;;;5034961;28;20463;-73
2022/10/06 11:41:48;;;;;;;6.63;1.93;;;26.50;6.20;;;;;;5037341;28;21126;-72
2022/10/06 11:44:21;;;;;;;4.90;2.20;;;26.60;6.60;;;;;;5033942;28;20959;-73
2022/10/06 11:46:52;;;;;;;7.83;3.23;;;26.60;6.10;;;;;;5030312;28;20504;-73
2022/10/06 11:49:50;;;;;;;5.10;2.30;;;26.40;6.10;;;;;;5015938;28;20463;-72
2022/10/06 11:52:55;;;;;;;5.23;2.13;;;26.20;6.40;;;;;;5030443;28;20895;-73
2022/10/06 11:55:25;;;;;;;8.90;2.63;;;26.10;7.70;;;;;;5032067;28;20478;-72
2022/10/06 11:58:12;;;;;;;5.90;2.10;;;26.10;7.30;;;;;;5035072;28;20541;-73
2022/10/06 12:00:49;;;;;;;6.20;2.00;;;26.10;7.20;;;;;;5025634;28;20519;-73
2022/10/06 12:03:53;;;;;;;7.80;2.23;;;25.90;6.10;;;;;;5033036;28;20485;-73
2022/10/06 12:07:05;;;;;;;5.37;2.20;;;25.90;7.10;;;;;;5018095;28;20482;-73
2022/10/06 12:09:49;;;;;;;7.07;2.30;;;25.90;6.50;;;;;;5028496;28;20483;-72
2022/10/06 12:12:42;;;;;;;6.30;2.07;;;25.70;6.10;;;;;;5027848;28;20459;-74
2022/10/06 12:15:19;;;;;;;6.50;3.17;;;25.60;6.40;;;;;;5032477;28;20479;-73
2022/10/06 12:17:53;;;;;;;7.90;2.40;;;25.50;8.00;;;;;;5029293;28;20961;-72
2022/10/06 12:20:28;;;;;;;7.73;2.63;;;25.70;8.00;;;;;;5037820;28;20826;-73
2022/10/06 12:23:02;;;;;;;7.07;2.70;;;25.90;7.60;;;;;;5023717;28;20548;-74
2022/10/06 12:25:39;;;;;;;5.10;2.10;;;25.90;7.20;;;;;;5027074;28;20485;-73
2022/10/06 12:28:15;;;;;;;5.70;2.57;;;26.00;7.30;;;;;;5027680;28;20462;-72
2022/10/06 12:30:53;;;;;;;7.80;2.47;;;26.00;7.60;;;;;;5022636;28;20487;-73
2022/10/06 12:33:34;;;;;;;7.40;2.20;;;25.90;7.70;;;;;;5013881;28;20462;-74
2022/10/06 12:36:02;;;;;;;6.13;2.33;;;25.90;7.50;;;;;;5022301;28;20479;-74
2022/10/06 12:38:43;;;;;;;7.47;2.67;;;25.80;7.10;;;;;;5031131;28;20463;-73
2022/10/06 12:41:13;;;;;;;6.53;2.80;;;25.70;7.00;;;;;;5020750;28;20948;-73
2022/10/06 12:43:57;;;;;;;5.77;2.17;;;25.70;7.30;;;;;;5014344;28;20463;-69
2022/10/06 12:46:45;;;;;;;6.47;2.10;;;25.60;7.80;;;;;;5016132;28;20639;-67
2022/10/06 12:49:35;;;;;;;5.47;2.00;;;25.50;8.00;;;;;;5013851;28;20463;-67
2022/10/06 12:52:19;;;;;;;10.87;2.93;;;25.40;8.60;;;;;;5017819;28;20475;-68
2022/10/06 12:54:58;;;;;;;6.10;2.50;;;25.30;9.40;;;;;;5025590;28;20466;-69
2022/10/06 12:57:29;;;;;;;7.23;2.50;;;25.20;8.80;;;;;;5017700;28;20933;-68
2022/10/06 12:59:56;;;;;;;9.20;2.80;;;25.10;8.70;;;;;;5017446;28;20450;-67
2022/10/06 13:02:26;;;;;;;6.83;2.20;;;25.00;8.80;;;;;;5017628;28;20470;-69
2022/10/06 13:04:55;;;;;;;6.83;2.90;;;24.90;8.60;;;;;;5023085;28;21028;-67
2022/10/06 13:07:23;;;;;;;10.17;3.03;;;24.80;9.00;;;;;;5019467;28;20738;-67
2022/10/06 13:09:54;;;;;;;6.80;2.00;;;24.60;9.50;;;;;;5025642;28;20483;-68
2022/10/06 13:12:28;;;;;;;7.30;2.67;;;24.60;10.20;;;;;;5020364;28;20462;-67
2022/10/06 13:15:15;;;;;;;7.03;2.67;;;24.60;10.10;;;;;;5020168;28;20482;-67
2022/10/06 13:17:45;;;;;;;9.87;2.40;;;24.50;10.10;;;;;;5023947;28;20470;-68
2022/10/06 13:20:35;;;;;;;7.30;2.73;;;24.40;10.20;;;;;;5026889;28;20470;-67
2022/10/06 13:23:05;;;;;;;6.47;2.60;;;24.30;10.60;;;;;;5014660;28;20494;-68
2022/10/06 13:25:41;;;;;;;6.90;2.27;;;24.10;10.70;;;;;;5028001;28;20486;-70